createdAt,value
2019-04-21T00:01:12.657Z,9.25
2019-04-21T00:03:48.625Z,9.43
2019-04-21T00:06:32.389Z,9.20
2019-04-21T00:09:09.370Z,9.10
2019-04-21T00:11:31.385Z,9.03
2019-04-21T00:13:52.719Z,9.85
2019-04-21T00:16:12.255Z,9.05
2019-04-21T00:19:09.069Z,9.80
2019-04-21T00:21:40.461Z,8.95
2019-04-21T00:24:23.659Z,8.85
2019-04-21T00:26:57.332Z,9.73
2019-04-21T00:29:33.020Z,9.35
2019-04-21T00:31:56.852Z,9.70
2019-04-21T00:34:09.087Z,9.23
2019-04-21T00:36:47.192Z,10.43
2019-04-21T00:39:37.081Z,9.53
2019-04-21T00:41:59.614Z,10.25
2019-04-21T00:44:17.307Z,11.00
2019-04-21T00:46:51.945Z,9.95
2019-04-21T00:49:23.255Z,9.68
2019-04-21T00:52:47.573Z,10.55
2019-04-21T00:55:14.302Z,10.88
2019-04-21T00:57:38.851Z,10.15
2019-04-21T01:00:08.457Z,9.48
2019-04-21T01:02:39.932Z,9.70
2019-04-21T01:05:15.455Z,10.32
2019-04-21T01:07:36.020Z,11.12
2019-04-21T01:09:59.257Z,10.00
2019-04-21T01:12:33.417Z,9.88
2019-04-21T01:15:09.229Z,8.78
2019-04-21T01:17:35.763Z,10.60
2019-04-21T01:19:57.470Z,10.13
2019-04-21T01:22:10.770Z,9.80
2019-04-21T01:24:43.035Z,10.82
2019-04-21T01:27:18.553Z,9.65
2019-04-21T01:30:02.969Z,10.08
2019-04-21T01:32:29.712Z,10.23
2019-04-21T01:34:57.630Z,10.75
2019-04-21T01:37:38.496Z,9.98
2019-04-21T01:40:04.831Z,10.03
2019-04-21T01:42:25.605Z,10.25
2019-04-21T01:44:58.175Z,10.20
2019-04-21T01:47:20.222Z,11.78
2019-04-21T01:49:43.163Z,10.25
2019-04-21T01:52:34.970Z,10.48
2019-04-21T01:55:24.956Z,9.95
2019-04-21T01:58:05.974Z,10.43
2019-04-21T02:00:45.057Z,9.65
2019-04-21T02:03:41.668Z,10.18
2019-04-21T02:06:00.032Z,10.35
2019-04-21T02:08:20.022Z,10.58
2019-04-21T02:10:56.024Z,10.48
2019-04-21T02:13:18.777Z,10.63
2019-04-21T02:15:59.404Z,10.80
2019-04-21T02:18:17.020Z,11.12
2019-04-21T02:20:39.862Z,11.08
2019-04-21T02:23:27.915Z,11.35
2019-04-21T02:25:50.892Z,11.12
2019-04-21T02:28:22.418Z,9.40
2019-04-21T02:33:38.894Z,11.95
2019-04-21T02:36:09.770Z,11.03
2019-04-21T02:38:34.417Z,12.15
2019-04-21T02:40:53.476Z,11.48
2019-04-21T02:43:25.205Z,13.60
2019-04-21T02:45:58.590Z,13.05
2019-04-21T02:50:45.202Z,11.25
2019-04-21T02:53:53.606Z,11.90
2019-04-21T02:56:01.645Z,12.53
2019-04-21T02:58:44.061Z,11.57
2019-04-21T03:01:38.298Z,11.50
2019-04-21T03:07:11.268Z,11.78
2019-04-21T03:09:32.108Z,11.70
2019-04-21T03:12:05.342Z,11.33
2019-04-21T03:14:35.841Z,12.10
2019-04-21T03:16:55.616Z,11.80
2019-04-21T03:19:36.470Z,12.50
2019-04-21T03:22:05.170Z,12.82
2019-04-21T03:24:31.444Z,12.47
2019-04-21T03:27:09.678Z,12.55
2019-04-21T03:29:28.263Z,12.60
2019-04-21T03:32:14.382Z,12.47
2019-04-21T03:39:30.902Z,13.48
2019-04-21T03:41:56.790Z,12.23
2019-04-21T03:44:26.666Z,12.37
2019-04-21T03:49:32.479Z,12.50
2019-04-21T03:51:59.237Z,13.28
2019-04-21T03:54:30.840Z,12.20
2019-04-21T03:57:08.788Z,14.07
2019-04-21T03:59:38.156Z,14.10
2019-04-21T04:05:14.886Z,13.62
2019-04-21T04:07:59.454Z,14.10
2019-04-21T04:10:22.848Z,12.40
2019-04-21T04:12:57.795Z,13.95
2019-04-21T04:15:36.767Z,14.03
2019-04-21T04:17:49.116Z,14.45
2019-04-21T04:20:28.555Z,16.15
2019-04-21T04:22:56.236Z,13.50
2019-04-21T04:25:21.126Z,15.70
2019-04-21T04:27:59.763Z,14.03
2019-04-21T04:35:26.289Z,15.28
2019-04-21T04:38:07.173Z,13.55
2019-04-21T04:40:38.731Z,15.13
2019-04-21T04:43:08.344Z,15.25
2019-04-21T04:45:40.951Z,14.20
2019-04-21T04:53:01.952Z,14.85
2019-04-21T04:55:33.767Z,15.40
2019-04-21T05:02:56.316Z,15.45
2019-04-21T05:05:19.539Z,13.60
2019-04-21T05:10:41.786Z,14.63
2019-04-21T05:12:51.157Z,14.47
2019-04-21T05:15:16.081Z,12.20
2019-04-21T05:17:52.519Z,12.10
2019-04-21T05:20:29.652Z,11.45
2019-04-21T05:22:47.683Z,11.57
2019-04-21T05:25:14.912Z,12.20
2019-04-21T05:27:44.819Z,13.03
2019-04-21T05:30:30.696Z,10.78
2019-04-21T05:33:09.710Z,10.15
2019-04-21T05:36:09.425Z,8.88
2019-04-21T05:38:47.642Z,9.75
2019-04-21T05:41:15.645Z,9.85
2019-04-21T05:43:58.817Z,9.88
2019-04-21T05:46:25.379Z,9.50
2019-04-21T05:48:54.779Z,9.38
2019-04-21T05:51:25.313Z,10.00
2019-04-21T05:54:04.895Z,9.55
2019-04-21T05:56:32.081Z,9.48
2019-04-21T05:58:57.497Z,10.05
2019-04-21T06:01:33.061Z,9.63
2019-04-21T06:04:01.752Z,9.30
2019-04-21T06:06:31.038Z,9.85
2019-04-21T06:08:53.667Z,9.58
2019-04-21T06:11:27.025Z,10.48
2019-04-21T06:16:28.661Z,11.20
2019-04-21T06:19:11.495Z,9.95
2019-04-21T06:21:38.844Z,12.47
2019-04-21T06:24:13.171Z,12.23
2019-04-21T06:26:53.679Z,10.82
2019-04-21T06:29:33.117Z,12.43
2019-04-21T06:34:37.542Z,12.23
2019-04-21T06:37:40.499Z,12.35
2019-04-21T06:42:32.489Z,13.30
2019-04-21T06:47:39.442Z,14.00
2019-04-21T06:50:18.967Z,13.30
2019-04-21T06:55:02.508Z,11.93
2019-04-21T06:57:30.994Z,14.93
2019-04-21T06:59:55.299Z,11.30
2019-04-21T07:05:05.581Z,10.93
2019-04-21T07:07:27.434Z,13.77
2019-04-21T07:10:01.503Z,12.10
2019-04-21T07:12:21.999Z,12.00
2019-04-21T07:15:01.898Z,13.63
2019-04-21T07:20:23.198Z,11.53
2019-04-21T07:22:55.176Z,12.97
2019-04-21T07:25:22.077Z,12.43
2019-04-21T07:27:52.441Z,12.50
2019-04-21T07:30:26.607Z,12.17
2019-04-21T07:32:56.291Z,11.90
2019-04-21T07:35:22.189Z,12.37
2019-04-21T07:37:50.806Z,12.47
2019-04-21T07:40:14.609Z,12.13
2019-04-21T07:42:46.972Z,12.13
2019-04-21T07:45:13.096Z,12.80
2019-04-21T07:47:56.599Z,11.30
2019-04-21T07:50:33.105Z,11.60
2019-04-21T07:53:24.342Z,11.23
2019-04-21T07:58:14.805Z,11.93
2019-04-21T08:00:51.435Z,11.17
2019-04-21T08:03:15.906Z,11.50
2019-04-21T08:05:49.598Z,12.13
2019-04-21T08:08:01.471Z,11.60
2019-04-21T08:10:38.102Z,13.00
2019-04-21T08:13:22.046Z,18.33
2019-04-21T08:18:11.765Z,34.10
2019-04-21T08:20:35.197Z,68.23
2019-04-21T08:23:17.003Z,15.63
2019-04-21T08:25:45.953Z,36.53
2019-04-21T08:28:07.303Z,28.07
2019-04-21T08:30:40.277Z,13.20
2019-04-21T08:33:18.780Z,14.37
2019-04-21T08:36:05.520Z,12.80
2019-04-21T08:38:08.172Z,12.87
2019-04-21T08:43:10.952Z,15.50
2019-04-21T08:48:04.641Z,12.90
2019-04-21T08:50:33.431Z,12.67
2019-04-21T08:53:07.843Z,14.00
2019-04-21T08:55:51.035Z,12.63
2019-04-21T08:58:34.381Z,12.03
2019-04-21T09:01:25.534Z,22.63
2019-04-21T09:04:12.945Z,13.83
2019-04-21T09:06:31.636Z,12.30
2019-04-21T09:08:58.016Z,11.73
2019-04-21T09:11:23.966Z,11.50
2019-04-21T09:13:59.500Z,12.43
2019-04-21T09:16:20.823Z,11.77
2019-04-21T09:18:47.319Z,11.70
2019-04-21T09:21:28.545Z,11.50
2019-04-21T09:23:50.965Z,12.27
2019-04-21T09:26:25.205Z,12.73
2019-04-21T09:28:46.608Z,10.70
2019-04-21T09:31:05.305Z,10.73
2019-04-21T09:33:38.626Z,11.53
2019-04-21T09:36:06.023Z,11.87
2019-04-21T09:38:37.158Z,11.00
2019-04-21T09:41:00.566Z,14.03
2019-04-21T09:43:36.240Z,12.77
2019-04-21T09:45:58.886Z,11.97
2019-04-21T09:48:29.798Z,11.17
2019-04-21T09:50:57.440Z,10.60
2019-04-21T09:53:33.241Z,11.47
2019-04-21T09:56:00.007Z,10.97
2019-04-21T09:58:32.909Z,11.50
2019-04-21T10:01:04.940Z,10.90
2019-04-21T10:03:23.706Z,9.87
2019-04-21T10:05:51.975Z,10.50
2019-04-21T10:08:20.583Z,10.43
2019-04-21T10:10:49.068Z,10.13
2019-04-21T10:13:17.180Z,10.80
2019-04-21T10:15:46.734Z,11.20
2019-04-21T10:18:17.516Z,12.83
2019-04-21T10:20:47.136Z,10.03
2019-04-21T10:23:15.636Z,10.23
2019-04-21T10:25:43.942Z,9.97
2019-04-21T10:28:13.090Z,10.53
2019-04-21T10:30:41.018Z,10.40
2019-04-21T10:33:10.247Z,9.70
2019-04-21T10:35:39.390Z,10.57
2019-04-21T10:38:20.046Z,11.30
2019-04-21T10:40:37.408Z,14.67
2019-04-21T10:43:09.952Z,10.73
2019-04-21T10:45:35.086Z,10.20
2019-04-21T10:48:05.396Z,9.90
2019-04-21T10:50:33.266Z,10.90
2019-04-21T10:53:14.766Z,10.57
2019-04-21T10:55:57.899Z,10.67
2019-04-21T10:58:38.302Z,12.93
2019-04-21T11:01:14.230Z,9.53
2019-04-21T11:03:53.162Z,12.13
2019-04-21T11:06:21.489Z,9.37
2019-04-21T11:08:54.123Z,8.80
2019-04-21T11:11:19.676Z,8.30
2019-04-21T11:13:48.864Z,8.90
2019-04-21T11:16:17.379Z,8.50
2019-04-21T11:18:46.459Z,7.20
2019-04-21T11:21:14.355Z,9.00
2019-04-21T11:23:42.293Z,9.20
2019-04-21T11:26:12.032Z,8.37
2019-04-21T11:28:45.238Z,9.97
2019-04-21T11:31:15.444Z,8.30
2019-04-21T11:33:45.089Z,9.90
2019-04-21T11:36:13.416Z,9.40
2019-04-21T11:39:12.390Z,10.50
2019-04-21T11:41:29.850Z,9.30
2019-04-21T11:44:09.807Z,9.10
2019-04-21T11:46:38.356Z,9.13
2019-04-21T11:49:08.413Z,7.60
2019-04-21T11:51:37.550Z,9.47
2019-04-21T11:54:06.711Z,9.57
2019-04-21T11:56:35.267Z,10.47
2019-04-21T11:59:03.839Z,9.40
2019-04-21T12:01:31.982Z,8.80
2019-04-21T12:04:00.183Z,8.70
2019-04-21T12:06:32.150Z,8.67
2019-04-21T12:09:04.765Z,8.50
2019-04-21T12:11:33.593Z,8.00
2019-04-21T12:14:01.699Z,9.43
2019-04-21T12:16:33.017Z,8.63
2019-04-21T12:19:02.759Z,8.10
2019-04-21T12:21:45.120Z,8.40
2019-04-21T12:24:02.724Z,7.97
2019-04-21T12:26:31.734Z,7.80
2019-04-21T12:28:59.907Z,7.90
2019-04-21T12:32:05.644Z,8.03
2019-04-21T12:34:36.141Z,8.40
2019-04-21T12:37:04.627Z,8.03
2019-04-21T12:39:32.852Z,9.07
2019-04-21T12:42:01.062Z,7.67
2019-04-21T12:44:29.566Z,8.80
2019-04-21T12:46:59.768Z,9.63
2019-04-21T12:49:29.912Z,8.30
2019-04-21T12:51:57.814Z,9.90
2019-04-21T12:54:25.952Z,10.37
2019-04-21T12:56:53.933Z,8.10
2019-04-21T12:59:21.832Z,8.40
2019-04-21T13:01:50.755Z,7.97
2019-04-21T13:04:23.859Z,7.10
2019-04-21T13:06:55.246Z,8.20
2019-04-21T13:09:24.213Z,8.50
2019-04-21T13:11:55.166Z,7.37
2019-04-21T13:14:26.246Z,8.40
2019-04-21T13:16:55.125Z,7.83
2019-04-21T13:19:25.317Z,7.97
2019-04-21T13:21:54.338Z,8.00
2019-04-21T13:24:22.208Z,7.00
2019-04-21T13:26:55.936Z,7.63
2019-04-21T13:29:20.508Z,7.80
2019-04-21T13:31:49.937Z,7.90
2019-04-21T13:34:18.085Z,6.40
2019-04-21T13:36:47.590Z,7.10
2019-04-21T13:40:07.481Z,8.07
2019-04-21T13:42:28.100Z,7.80
2019-04-21T13:44:48.807Z,7.80
2019-04-21T13:47:16.880Z,7.60
2019-04-21T13:49:45.485Z,6.57
2019-04-21T13:52:13.513Z,6.77
2019-04-21T13:54:43.192Z,6.73
2019-04-21T13:57:12.503Z,7.20
2019-04-21T13:59:40.454Z,5.93
2019-04-21T14:02:11.252Z,7.33
2019-04-21T14:04:39.561Z,7.97
2019-04-21T14:07:08.222Z,7.70
2019-04-21T14:09:47.021Z,7.10
2019-04-21T14:12:05.985Z,7.33
2019-04-21T14:14:34.571Z,5.90
2019-04-21T14:17:05.199Z,7.10
2019-04-21T14:19:33.122Z,6.43
2019-04-21T14:22:01.273Z,7.10
2019-04-21T14:24:29.106Z,6.80
2019-04-21T14:26:58.319Z,6.70
2019-04-21T14:29:27.761Z,6.10
2019-04-21T14:31:56.009Z,6.87
2019-04-21T14:34:24.098Z,7.27
2019-04-21T14:36:52.922Z,6.17
2019-04-21T14:39:20.951Z,7.03
2019-04-21T14:41:48.812Z,6.00
2019-04-21T14:44:16.698Z,6.97
2019-04-21T14:46:55.575Z,6.63
2019-04-21T14:49:36.978Z,6.37
2019-04-21T14:52:17.333Z,6.87
2019-04-21T14:55:10.617Z,6.37
2019-04-21T14:57:39.137Z,6.80
2019-04-21T15:00:09.180Z,5.90
2019-04-21T15:02:41.229Z,7.03
2019-04-21T15:05:09.492Z,5.80
2019-04-21T15:07:37.339Z,6.27
2019-04-21T15:10:13.295Z,6.47
2019-04-21T15:12:36.096Z,6.03
2019-04-21T15:15:05.625Z,5.50
2019-04-21T15:17:33.777Z,6.50
2019-04-21T15:20:06.625Z,6.10
2019-04-21T15:22:32.334Z,6.70
2019-04-21T15:25:00.688Z,6.27
2019-04-21T15:27:28.630Z,6.30
2019-04-21T15:29:56.556Z,6.50
2019-04-21T15:32:24.476Z,6.70
2019-04-21T15:34:52.333Z,6.20
2019-04-21T15:37:20.242Z,6.20
2019-04-21T15:39:48.828Z,6.63
2019-04-21T15:42:17.021Z,6.47
2019-04-21T15:44:44.988Z,5.83
2019-04-21T15:47:13.733Z,5.57
2019-04-21T15:50:04.627Z,6.43
2019-04-21T15:52:27.983Z,6.00
2019-04-21T15:55:03.153Z,6.77
2019-04-21T15:57:37.857Z,6.17
2019-04-21T16:00:24.633Z,5.97
2019-04-21T16:02:52.843Z,7.00
2019-04-21T16:05:22.424Z,6.87
2019-04-21T16:07:51.923Z,6.63
2019-04-21T16:10:33.230Z,7.00
2019-04-21T16:12:49.902Z,8.17
2019-04-21T16:15:18.820Z,6.30
2019-04-21T16:17:47.569Z,6.87
2019-04-21T16:20:15.801Z,6.40
2019-04-21T16:22:44.547Z,5.67
2019-04-21T16:25:12.889Z,6.13
2019-04-21T16:27:41.409Z,6.53
2019-04-21T16:30:10.052Z,6.10
2019-04-21T16:32:38.428Z,6.10
2019-04-21T16:35:10.465Z,5.90
2019-04-21T16:37:37.397Z,6.40
2019-04-21T16:40:05.867Z,6.87
2019-04-21T16:42:34.158Z,6.60
2019-04-21T16:45:03.238Z,5.83
2019-04-21T16:47:32.441Z,7.13
2019-04-21T16:50:01.630Z,6.27
2019-04-21T16:52:34.236Z,7.97
2019-04-21T16:55:33.269Z,7.20
2019-04-21T16:58:23.422Z,8.20
2019-04-21T17:01:01.158Z,7.57
2019-04-21T17:03:24.374Z,7.57
2019-04-21T17:05:52.323Z,6.80
2019-04-21T17:08:20.221Z,6.33
2019-04-21T17:11:00.183Z,6.97
2019-04-21T17:13:18.252Z,6.93
2019-04-21T17:16:01.803Z,7.27
2019-04-21T17:18:31.589Z,6.20
2019-04-21T17:20:51.602Z,6.90
2019-04-21T17:23:15.686Z,6.03
2019-04-21T17:25:43.726Z,6.47
2019-04-21T17:28:12.204Z,7.33
2019-04-21T17:30:40.375Z,7.90
2019-04-21T17:33:10.090Z,9.00
2019-04-21T17:35:38.675Z,10.07
2019-04-21T17:38:07.986Z,8.77
2019-04-21T17:40:36.044Z,10.50
2019-04-21T17:43:10.405Z,11.10
2019-04-21T17:45:35.135Z,10.80
2019-04-21T17:48:08.842Z,8.50
2019-04-21T17:50:59.155Z,9.77
2019-04-21T17:53:47.795Z,8.53
2019-04-21T17:56:46.305Z,8.60
2019-04-21T17:59:09.554Z,8.53
2019-04-21T18:01:40.735Z,8.90
2019-04-21T18:04:10.426Z,8.10
2019-04-21T18:07:05.080Z,8.90
2019-04-21T18:09:45.446Z,8.13
2019-04-21T18:12:07.771Z,7.80
2019-04-21T18:14:22.300Z,8.60
2019-04-21T18:16:53.327Z,8.00
2019-04-21T18:19:26.016Z,8.00
2019-04-21T18:22:17.537Z,9.60
2019-04-21T18:24:55.778Z,9.20
2019-04-21T18:27:17.558Z,9.37
2019-04-21T18:29:46.664Z,9.60
2019-04-21T18:32:18.519Z,8.93
2019-04-21T18:35:08.846Z,8.10
2019-04-21T18:38:11.381Z,9.40
2019-04-21T18:40:36.896Z,9.37
2019-04-21T18:43:46.790Z,10.57
2019-04-21T18:46:13.595Z,10.10
2019-04-21T18:48:36.838Z,9.07
2019-04-21T18:51:35.866Z,10.50
2019-04-21T18:54:31.342Z,15.83
2019-04-21T18:56:51.409Z,14.80
2019-04-21T18:59:08.939Z,12.90
2019-04-21T19:01:40.656Z,14.30
2019-04-21T19:04:16.369Z,15.85
2019-04-21T19:06:54.624Z,16.50
2019-04-21T19:09:35.874Z,17.98
2019-04-21T19:12:00.837Z,20.25
2019-04-21T19:14:43.124Z,21.10
2019-04-21T19:17:15.947Z,21.37
2019-04-21T19:19:48.632Z,22.10
2019-04-21T19:22:10.481Z,22.90
2019-04-21T19:24:48.505Z,20.52
2019-04-21T19:27:23.717Z,21.37
2019-04-21T19:29:58.311Z,18.80
2019-04-21T19:32:21.172Z,19.07
2019-04-21T19:34:40.880Z,18.40
2019-04-21T19:37:13.383Z,17.12
2019-04-21T19:39:53.903Z,15.68
2019-04-21T19:42:22.554Z,16.27
2019-04-21T19:45:00.461Z,17.60
2019-04-21T19:47:33.978Z,17.23
2019-04-21T19:50:08.090Z,17.95
2019-04-21T19:52:30.546Z,17.80
2019-04-21T19:54:50.647Z,20.23
2019-04-21T19:57:21.134Z,21.65
2019-04-21T19:59:55.733Z,19.85
2019-04-21T20:02:26.663Z,21.52
2019-04-21T20:05:05.299Z,21.05
2019-04-21T20:07:49.768Z,18.40
2019-04-21T20:10:23.961Z,18.62
2019-04-21T20:12:50.304Z,18.27
2019-04-21T20:15:34.251Z,18.48
2019-04-21T20:17:53.018Z,19.60
2019-04-21T20:20:08.962Z,19.00
2019-04-21T20:22:44.089Z,16.48
2019-04-21T20:25:17.260Z,15.10
2019-04-21T20:27:55.401Z,14.95
2019-04-21T20:30:37.673Z,15.90
2019-04-21T20:33:20.178Z,14.45
2019-04-21T20:35:46.861Z,14.60
2019-04-21T20:38:11.405Z,13.90
2019-04-21T20:40:30.896Z,14.53
2019-04-21T20:43:16.422Z,14.73
2019-04-21T20:46:01.082Z,14.03
2019-04-21T20:48:05.947Z,13.45
2019-04-21T20:50:36.475Z,13.55
2019-04-21T20:53:17.585Z,15.85
2019-04-21T20:55:43.364Z,14.43
2019-04-21T21:07:28.014Z,17.15
2019-04-21T21:09:50.104Z,16.42
2019-04-21T21:12:27.710Z,16.50
2019-04-21T21:14:42.297Z,15.90
2019-04-21T21:18:04.327Z,16.55
2019-04-21T21:20:30.994Z,16.70
2019-04-21T21:23:02.884Z,15.65
2019-04-21T21:27:57.965Z,18.37
2019-04-21T21:30:35.133Z,17.85
2019-04-21T21:33:14.000Z,20.20
2019-04-21T21:35:37.965Z,19.17
2019-04-21T21:38:18.307Z,19.92
2019-04-21T21:40:45.598Z,18.70
2019-04-21T21:43:01.637Z,19.37
2019-04-21T21:45:34.866Z,19.85
2019-04-21T21:48:20.905Z,19.85
2019-04-21T21:50:46.011Z,22.30
2019-04-21T21:53:11.537Z,18.52
2019-04-21T21:55:35.897Z,17.95
2019-04-21T21:58:07.651Z,20.43
2019-04-21T22:00:37.583Z,19.87
2019-04-21T22:03:14.946Z,18.30
2019-04-21T22:05:45.594Z,18.60
2019-04-21T22:08:07.975Z,18.98
2019-04-21T22:11:13.631Z,19.92
2019-04-21T22:13:50.937Z,19.95
2019-04-21T22:16:17.410Z,19.73
2019-04-21T22:19:08.000Z,18.57
2019-04-21T22:21:38.571Z,17.70
2019-04-21T22:23:57.065Z,20.35
2019-04-21T22:26:20.894Z,18.95
2019-04-21T22:28:49.741Z,16.42
2019-04-21T22:31:22.893Z,17.57
2019-04-21T22:33:54.740Z,17.35
2019-04-21T22:36:35.358Z,18.10
2019-04-21T22:39:13.105Z,17.10
2019-04-21T22:41:30.985Z,17.98
2019-04-21T22:43:57.398Z,17.48
2019-04-21T22:46:26.287Z,17.23
2019-04-21T22:48:59.788Z,18.10
2019-04-21T22:51:32.388Z,18.37
2019-04-21T22:53:57.965Z,18.42
2019-04-21T22:56:31.363Z,18.75
2019-04-21T22:59:04.228Z,18.27
2019-04-21T23:01:43.492Z,19.07
2019-04-21T23:04:08.952Z,19.10
2019-04-21T23:06:44.430Z,18.48
2019-04-21T23:09:12.984Z,17.35
2019-04-21T23:11:45.420Z,18.62
2019-04-21T23:14:13.205Z,19.23
2019-04-21T23:16:45.973Z,18.30
2019-04-21T23:19:33.561Z,19.02
2019-04-21T23:22:09.955Z,18.75
2019-04-21T23:24:40.106Z,19.90
2019-04-21T23:27:06.358Z,19.95
2019-04-21T23:29:52.651Z,19.32
2019-04-21T23:32:14.952Z,19.57
2019-04-21T23:34:32.477Z,19.85
2019-04-21T23:37:10.629Z,20.08
2019-04-21T23:39:37.501Z,19.15
2019-04-21T23:42:06.404Z,19.12
2019-04-21T23:44:41.470Z,21.15
2019-04-21T23:47:12.142Z,20.75
2019-04-21T23:49:49.596Z,21.77
2019-04-21T23:52:12.049Z,20.90
2019-04-21T23:54:41.079Z,20.43
2019-04-21T23:57:18.101Z,20.70
2019-04-21T23:59:47.116Z,22.42
